createdAt,value
2019-05-19T00:02:26.900Z,65.99
2019-05-19T00:04:58.215Z,65.49
2019-05-19T00:07:29.654Z,65.24
2019-05-19T00:10:01.287Z,64.83
2019-05-19T00:12:32.738Z,64.11
2019-05-19T00:15:05.415Z,65.21
2019-05-19T00:17:38.008Z,63.90
2019-05-19T00:20:09.562Z,63.87
2019-05-19T00:22:41.256Z,64.01
2019-05-19T00:25:12.668Z,64.21
2019-05-19T00:27:46.958Z,64.36
2019-05-19T00:30:18.418Z,64.81
2019-05-19T00:32:49.918Z,64.54
2019-05-19T00:35:21.242Z,64.74
2019-05-19T00:37:52.653Z,64.85
2019-05-19T00:40:24.114Z,64.73
2019-05-19T00:42:55.550Z,64.29
2019-05-19T00:45:27.143Z,64.28
2019-05-19T00:47:58.505Z,63.03
2019-05-19T00:50:29.952Z,63.51
2019-05-19T00:53:01.538Z,63.41
2019-05-19T00:55:32.953Z,62.56
2019-05-19T00:58:05.258Z,63.40
2019-05-19T01:00:36.661Z,63.16
2019-05-19T01:03:07.917Z,63.37
2019-05-19T01:05:39.171Z,62.95
2019-05-19T01:08:10.450Z,63.50
2019-05-19T01:10:41.978Z,63.11
2019-05-19T01:13:13.408Z,63.29
2019-05-19T01:15:44.779Z,62.46
2019-05-19T01:18:16.074Z,62.93
2019-05-19T01:20:47.783Z,63.27
2019-05-19T01:23:19.178Z,62.48
2019-05-19T01:25:50.409Z,62.89
2019-05-19T01:28:21.873Z,62.58
2019-05-19T01:30:53.330Z,63.43
2019-05-19T01:33:24.630Z,63.73
2019-05-19T01:35:55.869Z,63.42
2019-05-19T01:38:27.249Z,63.70
2019-05-19T01:40:58.587Z,63.90
2019-05-19T01:43:30.044Z,63.82
2019-05-19T01:46:01.288Z,63.41
2019-05-19T01:48:32.842Z,63.62
2019-05-19T01:51:04.168Z,63.27
2019-05-19T01:53:35.464Z,63.66
2019-05-19T01:56:07.130Z,63.53
2019-05-19T01:58:38.530Z,63.43
2019-05-19T02:01:10.192Z,63.50
2019-05-19T02:03:41.631Z,63.47
2019-05-19T02:06:12.963Z,63.51
2019-05-19T02:08:44.321Z,63.42
2019-05-19T02:11:15.772Z,63.13
2019-05-19T02:13:47.071Z,63.36
2019-05-19T02:16:18.531Z,63.65
2019-05-19T02:18:50.043Z,63.81
2019-05-19T02:21:21.257Z,64.23
2019-05-19T02:23:53.720Z,63.96
2019-05-19T02:26:25.857Z,63.65
2019-05-19T02:28:57.269Z,63.93
2019-05-19T02:31:28.511Z,63.67
2019-05-19T02:34:00.196Z,62.96
2019-05-19T02:36:31.597Z,62.51
2019-05-19T02:39:03.888Z,61.59
2019-05-19T02:41:37.463Z,61.61
2019-05-19T02:44:09.870Z,61.26
2019-05-19T02:46:41.629Z,60.17
2019-05-19T02:49:13.502Z,61.58
2019-05-19T02:51:47.137Z,60.48
2019-05-19T02:54:20.063Z,59.75
2019-05-19T02:56:52.174Z,59.77
2019-05-19T02:59:24.925Z,58.52
2019-05-19T03:02:03.848Z,57.55
2019-05-19T03:04:35.361Z,57.89
2019-05-19T03:07:06.753Z,57.30
2019-05-19T03:09:38.122Z,56.89
2019-05-19T03:12:09.435Z,56.81
2019-05-19T03:14:40.931Z,56.53
2019-05-19T03:17:12.373Z,55.43
2019-05-19T03:19:43.877Z,55.52
2019-05-19T03:22:15.262Z,54.97
2019-05-19T03:24:46.628Z,54.20
2019-05-19T03:27:17.880Z,53.33
2019-05-19T03:29:51.680Z,53.96
2019-05-19T03:32:27.536Z,53.12
2019-05-19T03:34:59.917Z,54.23
2019-05-19T03:37:31.355Z,52.33
2019-05-19T03:40:04.371Z,52.10
2019-05-19T03:42:35.589Z,52.85
2019-05-19T03:45:07.099Z,52.92
2019-05-19T03:47:38.276Z,51.90
2019-05-19T03:50:09.571Z,52.29
2019-05-19T03:52:40.949Z,51.80
2019-05-19T03:55:12.547Z,51.95
2019-05-19T03:57:43.769Z,52.62
2019-05-19T04:00:15.860Z,52.69
2019-05-19T04:02:47.747Z,51.89
2019-05-19T04:05:19.259Z,50.84
2019-05-19T04:07:50.521Z,50.05
2019-05-19T04:10:22.012Z,49.49
2019-05-19T04:12:53.420Z,49.22
2019-05-19T04:15:24.889Z,48.67
2019-05-19T04:17:56.168Z,48.10
2019-05-19T04:20:28.491Z,47.98
2019-05-19T04:22:59.830Z,47.30
2019-05-19T04:25:31.189Z,48.41
2019-05-19T04:28:02.628Z,47.24
2019-05-19T04:30:34.268Z,46.51
2019-05-19T04:33:06.220Z,48.13
2019-05-19T04:35:37.512Z,46.97
2019-05-19T04:38:08.747Z,46.64
2019-05-19T04:40:40.127Z,47.41
2019-05-19T04:43:11.459Z,45.76
2019-05-19T04:45:42.727Z,44.77
2019-05-19T04:48:14.065Z,43.93
2019-05-19T04:50:45.619Z,44.81
2019-05-19T04:53:16.833Z,42.69
2019-05-19T04:55:48.201Z,42.36
2019-05-19T04:58:19.474Z,42.09
2019-05-19T05:00:50.880Z,41.11
2019-05-19T05:03:22.339Z,40.71
2019-05-19T05:05:53.643Z,41.42
2019-05-19T05:08:30.223Z,41.82
2019-05-19T05:10:58.143Z,40.90
2019-05-19T05:13:29.513Z,40.28
2019-05-19T05:16:00.894Z,40.97
2019-05-19T05:18:32.364Z,38.65
2019-05-19T05:21:03.805Z,38.47
2019-05-19T05:23:35.362Z,38.51
2019-05-19T05:26:06.973Z,39.07
2019-05-19T05:28:38.389Z,37.65
2019-05-19T05:31:09.777Z,36.71
2019-05-19T05:33:41.173Z,36.10
2019-05-19T05:36:12.592Z,36.08
2019-05-19T05:38:43.919Z,36.54
2019-05-19T05:41:15.251Z,35.01
2019-05-19T05:43:46.507Z,32.65
2019-05-19T05:46:17.859Z,32.84
2019-05-19T05:48:49.398Z,32.68
2019-05-19T05:51:20.688Z,31.25
2019-05-19T05:53:51.940Z,29.55
2019-05-19T05:56:23.294Z,29.88
2019-05-19T05:58:54.623Z,30.06
2019-05-19T06:01:25.914Z,27.60
2019-05-19T06:03:57.231Z,29.10
2019-05-19T06:06:28.535Z,26.94
2019-05-19T06:08:59.845Z,27.49
2019-05-19T06:11:31.243Z,26.36
2019-05-19T06:14:02.778Z,26.62
2019-05-19T06:16:34.274Z,27.57
2019-05-19T06:19:05.593Z,27.94
2019-05-19T06:21:36.988Z,27.42
2019-05-19T06:24:08.339Z,27.73
2019-05-19T06:26:39.676Z,29.42
2019-05-19T06:29:10.996Z,27.55
2019-05-19T06:31:42.344Z,28.21
2019-05-19T06:34:13.793Z,28.17
2019-05-19T06:36:45.140Z,28.52
2019-05-19T06:39:16.407Z,27.99
2019-05-19T06:41:47.799Z,27.24
2019-05-19T06:44:19.056Z,27.49
2019-05-19T06:46:52.050Z,28.10
2019-05-19T06:49:23.423Z,28.65
2019-05-19T06:51:54.777Z,27.81
2019-05-19T06:54:26.156Z,26.82
2019-05-19T06:56:57.468Z,28.53
2019-05-19T06:59:28.711Z,32.56
2019-05-19T07:02:00.100Z,34.52
2019-05-19T07:04:32.896Z,36.30
2019-05-19T07:07:04.263Z,35.77
2019-05-19T07:09:36.789Z,35.88
2019-05-19T07:12:08.445Z,35.14
2019-05-19T07:14:39.732Z,35.77
2019-05-19T07:17:11.043Z,35.62
2019-05-19T07:19:42.403Z,35.60
2019-05-19T07:22:13.735Z,35.98
2019-05-19T07:24:45.177Z,36.38
2019-05-19T07:27:16.439Z,36.04
2019-05-19T07:29:47.747Z,35.83
2019-05-19T07:32:19.096Z,36.16
2019-05-19T07:34:52.209Z,37.28
2019-05-19T07:37:23.623Z,37.22
2019-05-19T07:39:54.833Z,37.13
2019-05-19T07:42:27.200Z,36.83
2019-05-19T07:44:58.539Z,37.25
2019-05-19T07:47:29.832Z,37.65
2019-05-19T07:50:01.434Z,37.09
2019-05-19T07:52:33.895Z,37.21
2019-05-19T07:55:08.100Z,36.70
2019-05-19T07:57:39.393Z,36.37
2019-05-19T08:00:12.203Z,36.73
2019-05-19T08:02:43.565Z,36.80
2019-05-19T08:05:15.243Z,35.69
2019-05-19T08:07:46.635Z,35.30
2019-05-19T08:10:17.954Z,34.92
2019-05-19T08:12:49.308Z,34.06
2019-05-19T08:15:20.547Z,34.13
2019-05-19T08:17:51.873Z,33.44
2019-05-19T08:20:23.188Z,32.55
2019-05-19T08:22:54.520Z,32.99
2019-05-19T08:25:27.301Z,33.47
2019-05-19T08:28:07.323Z,34.26
2019-05-19T08:30:31.876Z,34.67
2019-05-19T08:33:03.348Z,33.18
2019-05-19T08:35:34.693Z,32.52
2019-05-19T08:38:06.041Z,32.98
2019-05-19T08:40:37.312Z,33.28
2019-05-19T08:43:08.615Z,34.03
2019-05-19T08:45:39.952Z,33.70
2019-05-19T08:48:11.412Z,34.60
2019-05-19T08:50:42.651Z,33.83
2019-05-19T08:53:14.118Z,34.12
2019-05-19T08:55:45.429Z,33.95
2019-05-19T08:58:16.797Z,34.56
2019-05-19T09:00:48.099Z,33.98
2019-05-19T09:03:19.376Z,34.16
2019-05-19T09:05:50.688Z,33.51
2019-05-19T09:08:21.976Z,34.18
2019-05-19T09:10:54.695Z,32.98
2019-05-19T09:13:25.944Z,33.21
2019-05-19T09:15:57.231Z,32.83
2019-05-19T09:18:28.565Z,33.08
2019-05-19T09:20:59.843Z,33.90
2019-05-19T09:23:31.197Z,34.30
2019-05-19T09:26:02.414Z,34.58
2019-05-19T09:28:33.969Z,34.68
2019-05-19T09:31:05.419Z,34.11
2019-05-19T09:33:36.742Z,32.17
2019-05-19T09:36:08.243Z,32.57
2019-05-19T09:38:39.511Z,32.54
2019-05-19T09:41:10.875Z,33.62
2019-05-19T09:43:42.248Z,34.57
2019-05-19T09:46:14.055Z,33.39
2019-05-19T09:48:46.566Z,33.67
2019-05-19T09:51:17.883Z,32.94
2019-05-19T09:53:49.290Z,32.71
2019-05-19T09:56:20.665Z,32.33
2019-05-19T09:58:52.061Z,32.56
2019-05-19T10:01:23.355Z,33.62
2019-05-19T10:03:54.864Z,31.45
2019-05-19T10:06:26.019Z,32.56
2019-05-19T10:08:59.221Z,33.03
2019-05-19T10:11:44.347Z,31.82
2019-05-19T10:14:19.291Z,32.02
2019-05-19T10:16:50.540Z,32.00
2019-05-19T10:19:21.867Z,32.70
2019-05-19T10:21:53.372Z,33.35
2019-05-19T10:24:24.668Z,31.86
2019-05-19T10:26:55.983Z,31.89
2019-05-19T10:29:27.285Z,32.50
2019-05-19T10:31:58.515Z,31.59
2019-05-19T10:34:30.051Z,32.37
2019-05-19T10:37:01.589Z,32.84
2019-05-19T10:39:32.947Z,32.40
2019-05-19T10:42:04.350Z,32.36
2019-05-19T10:44:35.663Z,31.41
2019-05-19T10:47:06.971Z,30.61
2019-05-19T10:49:38.229Z,31.42
2019-05-19T10:52:09.445Z,31.85
2019-05-19T10:54:40.790Z,32.97
2019-05-19T10:57:13.049Z,31.52
2019-05-19T10:59:44.456Z,30.67
2019-05-19T11:02:15.763Z,30.43
2019-05-19T11:04:47.036Z,30.53
2019-05-19T11:07:18.320Z,30.80
2019-05-19T11:09:49.930Z,31.15
2019-05-19T11:12:22.414Z,30.93
2019-05-19T11:14:53.699Z,30.48
2019-05-19T11:17:25.198Z,30.53
2019-05-19T11:19:56.528Z,29.84
2019-05-19T11:22:27.880Z,31.04
2019-05-19T11:24:59.267Z,30.68
2019-05-19T11:27:30.590Z,30.58
2019-05-19T11:30:01.953Z,29.87
2019-05-19T11:32:33.374Z,29.31
2019-05-19T11:35:06.573Z,30.25
2019-05-19T11:37:37.797Z,29.45
2019-05-19T11:40:09.248Z,29.29
2019-05-19T11:42:40.561Z,29.50
2019-05-19T11:45:12.929Z,29.68
2019-05-19T11:47:44.218Z,29.03
2019-05-19T11:50:15.611Z,28.72
2019-05-19T11:52:46.923Z,29.05
2019-05-19T11:55:18.227Z,28.53
2019-05-19T11:57:49.487Z,28.93
2019-05-19T12:00:22.259Z,29.16
2019-05-19T12:02:53.563Z,28.22
2019-05-19T12:05:25.071Z,27.40
2019-05-19T12:07:56.497Z,26.57
2019-05-19T12:10:27.835Z,27.29
2019-05-19T12:12:59.444Z,27.04
2019-05-19T12:15:30.894Z,26.74
2019-05-19T12:18:02.377Z,26.91
2019-05-19T12:20:33.706Z,27.51
2019-05-19T12:23:05.315Z,27.97
2019-05-19T12:25:36.790Z,27.03
2019-05-19T12:28:08.054Z,27.09
2019-05-19T12:30:39.395Z,27.01
2019-05-19T12:33:10.687Z,27.29
2019-05-19T12:35:41.996Z,27.89
2019-05-19T12:38:13.301Z,27.07
2019-05-19T12:40:44.602Z,27.22
2019-05-19T12:43:16.032Z,27.38
2019-05-19T12:45:47.606Z,26.80
2019-05-19T12:48:19.110Z,26.68
2019-05-19T12:50:50.461Z,27.49
2019-05-19T12:53:21.852Z,26.97
2019-05-19T12:55:53.258Z,26.54
2019-05-19T12:58:24.609Z,27.09
2019-05-19T13:00:55.957Z,27.66
2019-05-19T13:03:27.195Z,28.34
2019-05-19T13:05:58.537Z,27.98
2019-05-19T13:08:30.019Z,27.23
2019-05-19T13:11:02.394Z,26.81
2019-05-19T13:13:33.674Z,26.47
2019-05-19T13:16:05.508Z,26.58
2019-05-19T13:18:36.899Z,26.97
2019-05-19T13:21:08.322Z,26.06
2019-05-19T13:23:39.552Z,27.00
2019-05-19T13:26:11.035Z,26.82
2019-05-19T13:28:42.306Z,25.18
2019-05-19T13:31:13.613Z,25.91
2019-05-19T13:33:45.016Z,25.89
2019-05-19T13:36:16.410Z,25.49
2019-05-19T13:38:47.662Z,25.22
2019-05-19T13:41:18.988Z,24.58
2019-05-19T13:43:50.307Z,24.93
2019-05-19T13:46:21.702Z,25.27
2019-05-19T13:48:52.947Z,25.43
2019-05-19T13:51:24.274Z,26.94
2019-05-19T13:53:56.075Z,27.50
2019-05-19T13:56:27.319Z,25.14
2019-05-19T13:58:58.618Z,25.55
2019-05-19T14:01:29.941Z,25.85
2019-05-19T14:04:01.244Z,26.14
2019-05-19T14:06:32.697Z,25.73
2019-05-19T14:09:05.121Z,25.83
2019-05-19T14:11:36.584Z,25.66
2019-05-19T14:14:07.830Z,25.19
2019-05-19T14:16:39.220Z,26.12
2019-05-19T14:19:10.589Z,25.96
2019-05-19T14:21:41.845Z,25.98
2019-05-19T14:24:13.063Z,26.35
2019-05-19T14:26:44.392Z,25.49
2019-05-19T14:29:15.624Z,26.48
2019-05-19T14:31:46.903Z,27.26
2019-05-19T14:34:18.186Z,27.52
2019-05-19T14:36:49.599Z,27.55
2019-05-19T14:39:20.952Z,28.05
2019-05-19T14:41:54.010Z,29.33
2019-05-19T14:44:25.326Z,28.52
2019-05-19T14:46:56.606Z,27.33
2019-05-19T14:49:29.503Z,26.77
2019-05-19T14:52:00.929Z,27.60
2019-05-19T14:54:32.249Z,27.05
2019-05-19T14:57:03.524Z,26.84
2019-05-19T14:59:34.927Z,27.33
2019-05-19T15:02:06.344Z,27.74
2019-05-19T15:04:37.692Z,28.58
2019-05-19T15:07:09.010Z,27.73
2019-05-19T15:09:40.234Z,28.49
2019-05-19T15:12:11.540Z,27.66
2019-05-19T15:14:42.801Z,28.42
2019-05-19T15:17:14.092Z,27.68
2019-05-19T15:19:46.394Z,28.13
2019-05-19T15:22:17.671Z,28.78
2019-05-19T15:24:49.159Z,28.38
2019-05-19T15:27:20.371Z,28.72
2019-05-19T15:29:51.607Z,28.45
2019-05-19T15:32:22.865Z,28.64
2019-05-19T15:34:54.162Z,29.26
2019-05-19T15:37:25.518Z,29.13
2019-05-19T15:39:57.655Z,29.03
2019-05-19T15:42:28.976Z,29.67
2019-05-19T15:45:00.273Z,30.13
2019-05-19T15:47:31.553Z,30.63
2019-05-19T15:50:02.851Z,30.69
2019-05-19T15:52:34.184Z,31.23
2019-05-19T15:55:06.798Z,31.17
2019-05-19T15:57:38.269Z,30.62
2019-05-19T16:00:10.129Z,31.22
2019-05-19T16:02:41.505Z,31.43
2019-05-19T16:05:13.128Z,31.84
2019-05-19T16:07:44.458Z,32.35
2019-05-19T16:10:17.328Z,32.73
2019-05-19T16:12:48.660Z,33.04
2019-05-19T16:15:20.129Z,33.35
2019-05-19T16:17:51.594Z,33.42
2019-05-19T16:20:22.907Z,33.17
2019-05-19T16:22:54.164Z,33.96
2019-05-19T16:25:25.411Z,33.53
2019-05-19T16:27:56.731Z,34.36
2019-05-19T16:30:28.166Z,34.54
2019-05-19T16:32:59.550Z,34.29
2019-05-19T16:35:31.037Z,34.21
2019-05-19T16:38:02.429Z,34.60
2019-05-19T16:40:33.810Z,34.68
2019-05-19T16:43:05.267Z,34.26
2019-05-19T16:45:36.701Z,34.70
2019-05-19T16:48:08.237Z,34.79
2019-05-19T16:50:40.821Z,35.04
2019-05-19T16:53:12.408Z,35.33
2019-05-19T16:55:44.173Z,34.92
2019-05-19T16:58:21.097Z,35.16
2019-05-19T17:00:49.401Z,34.90
2019-05-19T17:03:20.873Z,35.28
2019-05-19T17:05:52.309Z,35.29
2019-05-19T17:08:23.599Z,35.56
2019-05-19T17:10:55.236Z,35.52
2019-05-19T17:13:26.606Z,35.73
2019-05-19T17:15:57.926Z,35.57
2019-05-19T17:18:29.309Z,35.87
2019-05-19T17:21:00.724Z,36.47
2019-05-19T17:23:32.142Z,36.30
2019-05-19T17:26:03.555Z,35.91
2019-05-19T17:28:35.006Z,36.52
2019-05-19T17:31:07.767Z,37.26
2019-05-19T17:33:40.495Z,36.89
2019-05-19T17:36:12.609Z,36.96
2019-05-19T17:38:44.006Z,36.91
2019-05-19T17:41:15.538Z,37.70
2019-05-19T17:43:47.904Z,37.90
2019-05-19T17:46:19.151Z,37.64
2019-05-19T17:48:50.889Z,37.94
2019-05-19T17:51:22.330Z,38.36
2019-05-19T17:53:55.262Z,38.29
2019-05-19T17:56:27.467Z,38.60
2019-05-19T17:58:59.505Z,38.81
2019-05-19T18:01:30.918Z,39.01
2019-05-19T18:04:02.387Z,39.22
2019-05-19T18:06:33.822Z,39.44
2019-05-19T18:09:05.914Z,39.65
2019-05-19T18:11:38.461Z,39.49
2019-05-19T18:14:10.799Z,39.50
2019-05-19T18:16:42.161Z,40.06
2019-05-19T18:19:13.575Z,41.08
2019-05-19T18:21:45.036Z,41.36
2019-05-19T18:24:16.388Z,43.08
2019-05-19T18:26:47.614Z,43.34
2019-05-19T18:29:30.489Z,43.66
2019-05-19T18:31:52.204Z,40.68
2019-05-19T18:34:23.784Z,40.87
2019-05-19T18:36:55.153Z,40.56
2019-05-19T18:39:26.629Z,43.60
2019-05-19T18:41:59.577Z,44.64
2019-05-19T18:44:31.289Z,44.01
2019-05-19T18:47:02.636Z,45.24
2019-05-19T18:49:34.032Z,46.18
2019-05-19T18:52:05.460Z,42.27
2019-05-19T18:54:36.973Z,46.24
2019-05-19T18:57:08.399Z,46.70
2019-05-19T18:59:47.323Z,47.61
2019-05-19T19:02:14.806Z,46.93
2019-05-19T19:04:46.221Z,47.83
2019-05-19T19:07:17.543Z,42.60
2019-05-19T19:09:48.976Z,41.05
2019-05-19T19:12:21.942Z,40.15
2019-05-19T19:14:53.327Z,40.10
2019-05-19T19:17:24.580Z,40.40
2019-05-19T19:19:55.957Z,43.40
2019-05-19T19:22:28.753Z,44.30
2019-05-19T19:25:00.255Z,43.56
2019-05-19T19:27:31.847Z,43.86
2019-05-19T19:30:04.206Z,43.90
2019-05-19T19:32:35.785Z,44.77
2019-05-19T19:35:08.660Z,45.55
2019-05-19T19:37:39.940Z,43.74
2019-05-19T19:40:13.099Z,44.66
2019-05-19T19:42:44.523Z,44.01
2019-05-19T19:45:15.862Z,44.59
2019-05-19T19:47:47.107Z,44.47
2019-05-19T19:50:18.433Z,45.56
2019-05-19T19:52:49.837Z,45.68
2019-05-19T19:55:21.121Z,45.04
2019-05-19T19:57:52.402Z,45.65
2019-05-19T20:00:38.239Z,44.86
2019-05-19T20:03:09.654Z,44.59
2019-05-19T20:05:45.144Z,45.21
2019-05-19T20:08:17.534Z,44.61
2019-05-19T20:10:48.987Z,46.00
2019-05-19T20:13:20.377Z,45.70
2019-05-19T20:15:51.771Z,45.00
2019-05-19T20:18:23.055Z,46.59
2019-05-19T20:20:54.441Z,46.58
2019-05-19T20:23:25.931Z,46.13
2019-05-19T20:25:57.190Z,46.22
2019-05-19T20:28:28.562Z,46.44
2019-05-19T20:30:59.875Z,46.81
2019-05-19T20:33:31.356Z,47.23
2019-05-19T20:36:03.717Z,47.35
2019-05-19T20:38:35.204Z,47.65
2019-05-19T20:41:06.772Z,46.90
2019-05-19T20:43:38.094Z,47.37
2019-05-19T20:46:09.503Z,47.19
2019-05-19T20:48:40.930Z,47.96
2019-05-19T20:51:12.324Z,48.82
2019-05-19T20:53:43.646Z,48.75
2019-05-19T20:56:15.018Z,51.00
2019-05-19T20:58:46.442Z,50.71
2019-05-19T21:01:17.899Z,51.01
2019-05-19T21:03:49.329Z,52.46
2019-05-19T21:06:20.794Z,49.29
2019-05-19T21:08:52.063Z,49.56
2019-05-19T21:11:23.388Z,49.84
2019-05-19T21:13:54.636Z,49.40
2019-05-19T21:16:25.950Z,48.71
2019-05-19T21:19:10.814Z,49.63
2019-05-19T21:21:42.138Z,48.39
2019-05-19T21:24:13.449Z,48.47
2019-05-19T21:26:44.819Z,49.68
2019-05-19T21:29:17.210Z,49.22
2019-05-19T21:31:48.491Z,49.33
2019-05-19T21:34:19.781Z,48.72
2019-05-19T21:36:51.080Z,48.51
2019-05-19T21:39:22.458Z,48.22
2019-05-19T21:41:53.710Z,48.52
2019-05-19T21:44:25.122Z,48.62
2019-05-19T21:46:56.491Z,48.03
2019-05-19T21:49:27.636Z,47.85
2019-05-19T21:51:58.944Z,48.16
2019-05-19T21:54:30.271Z,48.19
2019-05-19T21:57:01.740Z,48.22
2019-05-19T21:59:33.020Z,48.19
2019-05-19T22:02:05.591Z,48.20
2019-05-19T22:04:36.990Z,48.59
2019-05-19T22:07:12.952Z,48.29
2019-05-19T22:09:44.151Z,47.83
2019-05-19T22:12:15.432Z,47.81
2019-05-19T22:14:46.761Z,47.54
2019-05-19T22:17:18.186Z,47.66
2019-05-19T22:19:49.411Z,48.16
2019-05-19T22:22:20.785Z,47.89
2019-05-19T22:24:52.096Z,48.89
2019-05-19T22:27:23.385Z,49.45
2019-05-19T22:29:54.721Z,49.13
2019-05-19T22:32:26.171Z,49.37
2019-05-19T22:34:57.645Z,49.46
2019-05-19T22:37:29.176Z,49.53
2019-05-19T22:40:00.595Z,48.93
2019-05-19T22:42:31.961Z,49.13
2019-05-19T22:45:04.036Z,49.11
2019-05-19T22:47:35.405Z,48.66
2019-05-19T22:50:08.350Z,48.55
2019-05-19T22:52:39.645Z,48.80
2019-05-19T22:55:10.840Z,49.29
2019-05-19T22:57:42.149Z,48.25
2019-05-19T23:00:14.920Z,48.74
2019-05-19T23:02:48.176Z,48.56
2019-05-19T23:05:19.500Z,47.95
2019-05-19T23:07:50.818Z,48.69
2019-05-19T23:10:22.329Z,48.17
2019-05-19T23:12:53.626Z,47.81
2019-05-19T23:15:25.077Z,48.72
2019-05-19T23:17:56.406Z,48.79
2019-05-19T23:20:27.628Z,49.66
2019-05-19T23:22:58.895Z,49.19
2019-05-19T23:25:30.283Z,48.45
2019-05-19T23:28:01.640Z,49.30
2019-05-19T23:30:32.923Z,49.23
2019-05-19T23:33:04.441Z,49.19
2019-05-19T23:35:35.711Z,49.60
2019-05-19T23:38:07.063Z,49.82
2019-05-19T23:40:38.294Z,49.98
2019-05-19T23:43:09.795Z,50.19
2019-05-19T23:45:40.991Z,50.25
2019-05-19T23:48:12.348Z,50.77
2019-05-19T23:50:44.551Z,50.33
2019-05-19T23:53:15.839Z,50.42
2019-05-19T23:55:47.117Z,50.42
2019-05-19T23:58:18.423Z,50.10
